sensor_id;sensor_type;location;lat;lon;timestamp;P1;durP1;ratioP1;P2;durP2;ratioP2
43552;SDS011;29153;42.696;23.218;2022-07-23T00:00:19;10.85;;;6.28;;
43552;SDS011;29153;42.696;23.218;2022-07-23T00:02:47;8.55;;;6.10;;
43552;SDS011;29153;42.696;23.218;2022-07-23T00:05:17;10.60;;;5.90;;
43552;SDS011;29153;42.696;23.218;2022-07-23T00:07:45;8.73;;;5.92;;
43552;SDS011;29153;42.696;23.218;2022-07-23T00:10:13;12.07;;;6.10;;
43552;SDS011;29153;42.696;23.218;2022-07-23T00:12:40;10.98;;;6.08;;
43552;SDS011;29153;42.696;23.218;2022-07-23T00:15:09;7.80;;;5.87;;
43552;SDS011;29153;42.696;23.218;2022-07-23T00:17:37;11.78;;;6.78;;
43552;SDS011;29153;42.696;23.218;2022-07-23T00:20:05;15.25;;;5.92;;
43552;SDS011;29153;42.696;23.218;2022-07-23T00:22:33;11.93;;;5.85;;
43552;SDS011;29153;42.696;23.218;2022-07-23T00:25:01;7.58;;;6.30;;
43552;SDS011;29153;42.696;23.218;2022-07-23T00:27:28;9.23;;;5.60;;
43552;SDS011;29153;42.696;23.218;2022-07-23T00:29:56;8.55;;;6.03;;
43552;SDS011;29153;42.696;23.218;2022-07-23T00:32:24;7.37;;;6.20;;
43552;SDS011;29153;42.696;23.218;2022-07-23T00:34:51;14.75;;;5.95;;
43552;SDS011;29153;42.696;23.218;2022-07-23T00:37:19;8.48;;;5.97;;
43552;SDS011;29153;42.696;23.218;2022-07-23T00:39:46;9.78;;;7.08;;
43552;SDS011;29153;42.696;23.218;2022-07-23T00:42:14;12.10;;;6.08;;
43552;SDS011;29153;42.696;23.218;2022-07-23T00:44:42;10.10;;;6.85;;
43552;SDS011;29153;42.696;23.218;2022-07-23T00:47:09;9.98;;;5.62;;
43552;SDS011;29153;42.696;23.218;2022-07-23T00:49:37;11.18;;;6.42;;
43552;SDS011;29153;42.696;23.218;2022-07-23T00:52:04;7.65;;;6.10;;
43552;SDS011;29153;42.696;23.218;2022-07-23T00:54:32;7.55;;;6.28;;
43552;SDS011;29153;42.696;23.218;2022-07-23T00:57:00;10.88;;;6.67;;
43552;SDS011;29153;42.696;23.218;2022-07-23T00:59:28;10.43;;;6.42;;
43552;SDS011;29153;42.696;23.218;2022-07-23T01:01:55;8.95;;;6.47;;
43552;SDS011;29153;42.696;23.218;2022-07-23T01:04:23;9.28;;;6.35;;
43552;SDS011;29153;42.696;23.218;2022-07-23T01:06:52;17.57;;;6.40;;
43552;SDS011;29153;42.696;23.218;2022-07-23T01:09:19;14.30;;;6.42;;
43552;SDS011;29153;42.696;23.218;2022-07-23T01:11:47;10.08;;;6.47;;
43552;SDS011;29153;42.696;23.218;2022-07-23T01:14:16;9.53;;;6.33;;
43552;SDS011;29153;42.696;23.218;2022-07-23T01:16:45;10.70;;;6.87;;
43552;SDS011;29153;42.696;23.218;2022-07-23T01:19:14;10.40;;;6.40;;
43552;SDS011;29153;42.696;23.218;2022-07-23T01:21:43;10.38;;;6.42;;
43552;SDS011;29153;42.696;23.218;2022-07-23T01:24:13;7.00;;;5.60;;
43552;SDS011;29153;42.696;23.218;2022-07-23T01:26:43;8.40;;;6.67;;
43552;SDS011;29153;42.696;23.218;2022-07-23T01:29:12;7.80;;;6.45;;
43552;SDS011;29153;42.696;23.218;2022-07-23T01:31:40;10.68;;;6.35;;
43552;SDS011;29153;42.696;23.218;2022-07-23T01:34:09;9.60;;;6.70;;
43552;SDS011;29153;42.696;23.218;2022-07-23T01:36:37;12.30;;;5.87;;
43552;SDS011;29153;42.696;23.218;2022-07-23T01:39:05;14.58;;;7.35;;
43552;SDS011;29153;42.696;23.218;2022-07-23T01:41:34;8.73;;;6.12;;
43552;SDS011;29153;42.696;23.218;2022-07-23T01:44:02;12.55;;;6.42;;
43552;SDS011;29153;42.696;23.218;2022-07-23T01:46:29;9.85;;;6.87;;
43552;SDS011;29153;42.696;23.218;2022-07-23T01:48:57;16.25;;;6.87;;
43552;SDS011;29153;42.696;23.218;2022-07-23T01:51:24;10.72;;;6.42;;
43552;SDS011;29153;42.696;23.218;2022-07-23T01:53:52;10.88;;;5.78;;
43552;SDS011;29153;42.696;23.218;2022-07-23T01:56:20;10.65;;;6.58;;
43552;SDS011;29153;42.696;23.218;2022-07-23T01:58:48;9.68;;;7.25;;
43552;SDS011;29153;42.696;23.218;2022-07-23T02:01:15;13.72;;;6.65;;
43552;SDS011;29153;42.696;23.218;2022-07-23T02:03:43;11.12;;;6.90;;
43552;SDS011;29153;42.696;23.218;2022-07-23T02:06:11;9.98;;;6.83;;
43552;SDS011;29153;42.696;23.218;2022-07-23T02:08:38;12.00;;;6.85;;
43552;SDS011;29153;42.696;23.218;2022-07-23T02:11:06;9.08;;;6.70;;
43552;SDS011;29153;42.696;23.218;2022-07-23T02:13:34;10.00;;;6.25;;
43552;SDS011;29153;42.696;23.218;2022-07-23T02:16:01;9.10;;;6.33;;
43552;SDS011;29153;42.696;23.218;2022-07-23T02:18:29;10.28;;;7.10;;
43552;SDS011;29153;42.696;23.218;2022-07-23T02:20:57;10.80;;;7.22;;
43552;SDS011;29153;42.696;23.218;2022-07-23T02:23:24;10.68;;;6.58;;
43552;SDS011;29153;42.696;23.218;2022-07-23T02:25:52;10.23;;;6.47;;
43552;SDS011;29153;42.696;23.218;2022-07-23T02:28:22;11.48;;;7.40;;
43552;SDS011;29153;42.696;23.218;2022-07-23T02:30:50;10.18;;;6.92;;
43552;SDS011;29153;42.696;23.218;2022-07-23T02:33:18;11.20;;;6.55;;
43552;SDS011;29153;42.696;23.218;2022-07-23T02:35:46;10.95;;;6.87;;
43552;SDS011;29153;42.696;23.218;2022-07-23T02:38:13;10.63;;;7.30;;
43552;SDS011;29153;42.696;23.218;2022-07-23T02:40:41;10.53;;;6.70;;
43552;SDS011;29153;42.696;23.218;2022-07-23T02:43:08;13.32;;;6.62;;
43552;SDS011;29153;42.696;23.218;2022-07-23T02:45:36;11.85;;;6.67;;
43552;SDS011;29153;42.696;23.218;2022-07-23T02:48:04;14.93;;;7.33;;
43552;SDS011;29153;42.696;23.218;2022-07-23T02:50:31;11.38;;;6.80;;
43552;SDS011;29153;42.696;23.218;2022-07-23T02:52:59;7.72;;;6.58;;
43552;SDS011;29153;42.696;23.218;2022-07-23T02:55:26;9.13;;;6.42;;
43552;SDS011;29153;42.696;23.218;2022-07-23T02:57:54;11.00;;;6.53;;
43552;SDS011;29153;42.696;23.218;2022-07-23T03:00:22;10.68;;;7.00;;
43552;SDS011;29153;42.696;23.218;2022-07-23T03:02:49;12.78;;;7.47;;
43552;SDS011;29153;42.696;23.218;2022-07-23T03:05:17;11.30;;;7.08;;
43552;SDS011;29153;42.696;23.218;2022-07-23T03:07:44;11.18;;;6.65;;
43552;SDS011;29153;42.696;23.218;2022-07-23T03:10:12;11.03;;;7.47;;
43552;SDS011;29153;42.696;23.218;2022-07-23T03:12:40;9.15;;;6.50;;
43552;SDS011;29153;42.696;23.218;2022-07-23T03:15:07;7.97;;;6.58;;
43552;SDS011;29153;42.696;23.218;2022-07-23T03:17:36;12.33;;;7.25;;
43552;SDS011;29153;42.696;23.218;2022-07-23T03:20:03;11.80;;;6.03;;
43552;SDS011;29153;42.696;23.218;2022-07-23T03:22:31;14.78;;;7.30;;
43552;SDS011;29153;42.696;23.218;2022-07-23T03:24:59;10.48;;;7.28;;
43552;SDS011;29153;42.696;23.218;2022-07-23T03:27:27;9.78;;;6.55;;
43552;SDS011;29153;42.696;23.218;2022-07-23T03:29:56;10.00;;;6.50;;
43552;SDS011;29153;42.696;23.218;2022-07-23T03:32:25;9.53;;;6.22;;
43552;SDS011;29153;42.696;23.218;2022-07-23T03:34:53;10.55;;;6.83;;
43552;SDS011;29153;42.696;23.218;2022-07-23T03:37:21;9.53;;;7.10;;
43552;SDS011;29153;42.696;23.218;2022-07-23T03:39:51;12.13;;;6.78;;
43552;SDS011;29153;42.696;23.218;2022-07-23T03:42:19;13.32;;;7.10;;
43552;SDS011;29153;42.696;23.218;2022-07-23T03:44:46;11.48;;;6.78;;
43552;SDS011;29153;42.696;23.218;2022-07-23T03:47:14;11.65;;;7.00;;
43552;SDS011;29153;42.696;23.218;2022-07-23T03:49:42;11.38;;;6.97;;
43552;SDS011;29153;42.696;23.218;2022-07-23T03:52:10;9.88;;;6.30;;
43552;SDS011;29153;42.696;23.218;2022-07-23T03:54:37;11.40;;;7.00;;
43552;SDS011;29153;42.696;23.218;2022-07-23T03:57:05;12.35;;;6.60;;
43552;SDS011;29153;42.696;23.218;2022-07-23T03:59:33;14.55;;;6.55;;
43552;SDS011;29153;42.696;23.218;2022-07-23T04:02:00;7.67;;;6.35;;
43552;SDS011;29153;42.696;23.218;2022-07-23T04:04:28;8.53;;;6.30;;
43552;SDS011;29153;42.696;23.218;2022-07-23T04:06:55;14.43;;;7.25;;
43552;SDS011;29153;42.696;23.218;2022-07-23T04:09:23;16.65;;;6.53;;
43552;SDS011;29153;42.696;23.218;2022-07-23T04:11:51;10.40;;;6.20;;
43552;SDS011;29153;42.696;23.218;2022-07-23T04:14:18;11.35;;;6.80;;
43552;SDS011;29153;42.696;23.218;2022-07-23T04:16:46;18.25;;;6.25;;
43552;SDS011;29153;42.696;23.218;2022-07-23T04:19:13;14.83;;;7.20;;
43552;SDS011;29153;42.696;23.218;2022-07-23T04:21:41;17.90;;;6.58;;
43552;SDS011;29153;42.696;23.218;2022-07-23T04:24:09;16.05;;;7.00;;
43552;SDS011;29153;42.696;23.218;2022-07-23T04:26:36;22.02;;;6.58;;
43552;SDS011;29153;42.696;23.218;2022-07-23T04:29:04;18.48;;;7.10;;
43552;SDS011;29153;42.696;23.218;2022-07-23T04:31:31;26.27;;;6.45;;
43552;SDS011;29153;42.696;23.218;2022-07-23T04:33:59;24.47;;;7.50;;
43552;SDS011;29153;42.696;23.218;2022-07-23T04:36:26;16.75;;;6.30;;
43552;SDS011;29153;42.696;23.218;2022-07-23T04:38:54;18.90;;;6.15;;
43552;SDS011;29153;42.696;23.218;2022-07-23T04:41:22;12.63;;;6.50;;
43552;SDS011;29153;42.696;23.218;2022-07-23T04:43:50;9.60;;;6.03;;
43552;SDS011;29153;42.696;23.218;2022-07-23T04:46:18;9.45;;;5.72;;
43552;SDS011;29153;42.696;23.218;2022-07-23T04:48:46;10.75;;;5.95;;
43552;SDS011;29153;42.696;23.218;2022-07-23T04:51:13;12.73;;;6.83;;
43552;SDS011;29153;42.696;23.218;2022-07-23T04:53:41;20.60;;;7.00;;
43552;SDS011;29153;42.696;23.218;2022-07-23T04:56:08;12.55;;;6.90;;
43552;SDS011;29153;42.696;23.218;2022-07-23T04:58:36;18.62;;;6.87;;
43552;SDS011;29153;42.696;23.218;2022-07-23T05:01:04;14.13;;;6.80;;
43552;SDS011;29153;42.696;23.218;2022-07-23T05:03:32;11.18;;;6.60;;
43552;SDS011;29153;42.696;23.218;2022-07-23T05:05:59;11.75;;;6.37;;
43552;SDS011;29153;42.696;23.218;2022-07-23T05:08:28;13.45;;;7.00;;
43552;SDS011;29153;42.696;23.218;2022-07-23T05:10:56;11.57;;;6.47;;
43552;SDS011;29153;42.696;23.218;2022-07-23T05:13:23;14.07;;;6.78;;
43552;SDS011;29153;42.696;23.218;2022-07-23T05:15:51;11.80;;;7.40;;
43552;SDS011;29153;42.696;23.218;2022-07-23T05:18:19;12.20;;;6.92;;
43552;SDS011;29153;42.696;23.218;2022-07-23T05:20:46;13.72;;;6.85;;
43552;SDS011;29153;42.696;23.218;2022-07-23T05:23:14;13.38;;;6.78;;
43552;SDS011;29153;42.696;23.218;2022-07-23T05:25:41;13.10;;;6.75;;
43552;SDS011;29153;42.696;23.218;2022-07-23T05:28:09;15.05;;;7.35;;
43552;SDS011;29153;42.696;23.218;2022-07-23T05:30:37;14.07;;;6.28;;
43552;SDS011;29153;42.696;23.218;2022-07-23T05:33:04;16.52;;;7.10;;
43552;SDS011;29153;42.696;23.218;2022-07-23T05:38:45;13.78;;;6.42;;
43552;SDS011;29153;42.696;23.218;2022-07-23T05:41:12;13.30;;;5.92;;
43552;SDS011;29153;42.696;23.218;2022-07-23T05:43:40;19.20;;;6.97;;
43552;SDS011;29153;42.696;23.218;2022-07-23T05:46:07;14.13;;;7.20;;
43552;SDS011;29153;42.696;23.218;2022-07-23T05:48:35;17.10;;;6.05;;
43552;SDS011;29153;42.696;23.218;2022-07-23T05:51:03;13.25;;;6.65;;
43552;SDS011;29153;42.696;23.218;2022-07-23T05:53:32;10.10;;;6.62;;
43552;SDS011;29153;42.696;23.218;2022-07-23T05:56:01;11.50;;;6.67;;
43552;SDS011;29153;42.696;23.218;2022-07-23T05:58:28;16.75;;;6.50;;
43552;SDS011;29153;42.696;23.218;2022-07-23T06:00:56;14.58;;;6.53;;
43552;SDS011;29153;42.696;23.218;2022-07-23T06:03:24;20.30;;;7.53;;
43552;SDS011;29153;42.696;23.218;2022-07-23T06:05:52;13.95;;;7.05;;
43552;SDS011;29153;42.696;23.218;2022-07-23T06:08:20;16.25;;;6.83;;
43552;SDS011;29153;42.696;23.218;2022-07-23T06:10:47;21.37;;;7.62;;
43552;SDS011;29153;42.696;23.218;2022-07-23T06:13:17;16.02;;;7.33;;
43552;SDS011;29153;42.696;23.218;2022-07-23T06:15:45;18.30;;;7.22;;
43552;SDS011;29153;42.696;23.218;2022-07-23T06:18:12;19.05;;;7.33;;
43552;SDS011;29153;42.696;23.218;2022-07-23T06:20:40;14.58;;;7.47;;
43552;SDS011;29153;42.696;23.218;2022-07-23T06:23:08;22.20;;;7.78;;
43552;SDS011;29153;42.696;23.218;2022-07-23T06:25:37;26.12;;;7.12;;
43552;SDS011;29153;42.696;23.218;2022-07-23T06:28:05;18.80;;;7.55;;
43552;SDS011;29153;42.696;23.218;2022-07-23T06:30:38;18.40;;;7.50;;
43552;SDS011;29153;42.696;23.218;2022-07-23T06:33:02;19.77;;;7.55;;
43552;SDS011;29153;42.696;23.218;2022-07-23T06:35:29;25.82;;;7.72;;
43552;SDS011;29153;42.696;23.218;2022-07-23T06:37:57;18.48;;;6.75;;
43552;SDS011;29153;42.696;23.218;2022-07-23T06:40:24;17.10;;;7.83;;
43552;SDS011;29153;42.696;23.218;2022-07-23T06:42:52;11.43;;;6.95;;
43552;SDS011;29153;42.696;23.218;2022-07-23T06:45:20;24.77;;;7.60;;
43552;SDS011;29153;42.696;23.218;2022-07-23T06:47:47;21.60;;;7.30;;
43552;SDS011;29153;42.696;23.218;2022-07-23T06:50:15;14.35;;;6.90;;
43552;SDS011;29153;42.696;23.218;2022-07-23T06:52:43;23.25;;;6.92;;
43552;SDS011;29153;42.696;23.218;2022-07-23T06:55:10;18.35;;;6.90;;
43552;SDS011;29153;42.696;23.218;2022-07-23T06:57:38;23.62;;;7.37;;
43552;SDS011;29153;42.696;23.218;2022-07-23T07:00:06;17.00;;;6.72;;
43552;SDS011;29153;42.696;23.218;2022-07-23T07:02:34;20.50;;;8.13;;
43552;SDS011;29153;42.696;23.218;2022-07-23T07:05:02;11.50;;;7.20;;
43552;SDS011;29153;42.696;23.218;2022-07-23T07:07:30;15.85;;;7.28;;
43552;SDS011;29153;42.696;23.218;2022-07-23T07:09:59;34.30;;;8.58;;
43552;SDS011;29153;42.696;23.218;2022-07-23T07:12:27;11.60;;;7.37;;
43552;SDS011;29153;42.696;23.218;2022-07-23T07:14:54;13.05;;;7.30;;
43552;SDS011;29153;42.696;23.218;2022-07-23T07:17:23;17.37;;;7.60;;
43552;SDS011;29153;42.696;23.218;2022-07-23T07:19:50;16.50;;;7.83;;
43552;SDS011;29153;42.696;23.218;2022-07-23T07:22:18;16.60;;;7.70;;
43552;SDS011;29153;42.696;23.218;2022-07-23T07:24:45;22.45;;;7.90;;
43552;SDS011;29153;42.696;23.218;2022-07-23T07:27:13;20.95;;;7.45;;
43552;SDS011;29153;42.696;23.218;2022-07-23T07:29:41;17.25;;;8.40;;
43552;SDS011;29153;42.696;23.218;2022-07-23T07:32:08;40.88;;;8.58;;
43552;SDS011;29153;42.696;23.218;2022-07-23T07:34:36;17.73;;;8.50;;
43552;SDS011;29153;42.696;23.218;2022-07-23T07:37:04;16.87;;;7.37;;
43552;SDS011;29153;42.696;23.218;2022-07-23T07:39:31;18.80;;;8.38;;
43552;SDS011;29153;42.696;23.218;2022-07-23T07:41:59;16.95;;;7.92;;
43552;SDS011;29153;42.696;23.218;2022-07-23T07:44:26;18.65;;;8.03;;
43552;SDS011;29153;42.696;23.218;2022-07-23T07:46:54;19.57;;;7.47;;
43552;SDS011;29153;42.696;23.218;2022-07-23T07:49:22;11.60;;;7.50;;
43552;SDS011;29153;42.696;23.218;2022-07-23T07:51:51;15.08;;;7.62;;
43552;SDS011;29153;42.696;23.218;2022-07-23T07:54:18;20.27;;;7.83;;
43552;SDS011;29153;42.696;23.218;2022-07-23T07:56:46;16.40;;;7.08;;
43552;SDS011;29153;42.696;23.218;2022-07-23T07:59:14;15.25;;;6.67;;
43552;SDS011;29153;42.696;23.218;2022-07-23T08:01:41;17.87;;;6.72;;
43552;SDS011;29153;42.696;23.218;2022-07-23T08:04:09;17.00;;;7.03;;
43552;SDS011;29153;42.696;23.218;2022-07-23T08:06:37;16.52;;;6.72;;
43552;SDS011;29153;42.696;23.218;2022-07-23T08:09:04;11.18;;;6.30;;
43552;SDS011;29153;42.696;23.218;2022-07-23T08:11:32;15.28;;;6.67;;
43552;SDS011;29153;42.696;23.218;2022-07-23T08:14:00;18.42;;;7.15;;
43552;SDS011;29153;42.696;23.218;2022-07-23T08:16:27;22.45;;;6.55;;
43552;SDS011;29153;42.696;23.218;2022-07-23T08:18:55;18.73;;;6.00;;
43552;SDS011;29153;42.696;23.218;2022-07-23T08:21:22;23.55;;;7.45;;
43552;SDS011;29153;42.696;23.218;2022-07-23T08:23:50;25.50;;;7.45;;
43552;SDS011;29153;42.696;23.218;2022-07-23T08:26:18;13.65;;;6.67;;
43552;SDS011;29153;42.696;23.218;2022-07-23T08:28:45;29.85;;;7.12;;
43552;SDS011;29153;42.696;23.218;2022-07-23T08:31:13;16.70;;;6.55;;
43552;SDS011;29153;42.696;23.218;2022-07-23T08:33:42;14.87;;;6.03;;
43552;SDS011;29153;42.696;23.218;2022-07-23T08:36:09;20.55;;;6.90;;
43552;SDS011;29153;42.696;23.218;2022-07-23T08:38:37;21.17;;;6.60;;
43552;SDS011;29153;42.696;23.218;2022-07-23T08:41:05;17.37;;;5.60;;
43552;SDS011;29153;42.696;23.218;2022-07-23T08:43:34;17.62;;;6.78;;
43552;SDS011;29153;42.696;23.218;2022-07-23T08:46:02;16.62;;;6.30;;
43552;SDS011;29153;42.696;23.218;2022-07-23T08:48:31;18.35;;;6.28;;
43552;SDS011;29153;42.696;23.218;2022-07-23T08:51:02;19.23;;;6.17;;
43552;SDS011;29153;42.696;23.218;2022-07-23T08:53:31;15.45;;;6.25;;
43552;SDS011;29153;42.696;23.218;2022-07-23T08:56:02;21.80;;;6.65;;
43552;SDS011;29153;42.696;23.218;2022-07-23T08:58:30;16.87;;;5.87;;
43552;SDS011;29153;42.696;23.218;2022-07-23T09:00:58;14.60;;;5.60;;
43552;SDS011;29153;42.696;23.218;2022-07-23T09:03:28;13.10;;;6.37;;
43552;SDS011;29153;42.696;23.218;2022-07-23T09:05:57;16.42;;;6.80;;
43552;SDS011;29153;42.696;23.218;2022-07-23T09:08:34;19.03;;;6.57;;
43552;SDS011;29153;42.696;23.218;2022-07-23T09:11:05;22.75;;;7.67;;
43552;SDS011;29153;42.696;23.218;2022-07-23T09:16:12;21.80;;;6.78;;
43552;SDS011;29153;42.696;23.218;2022-07-23T09:18:51;18.50;;;6.85;;
43552;SDS011;29153;42.696;23.218;2022-07-23T09:21:25;22.50;;;7.08;;
43552;SDS011;29153;42.696;23.218;2022-07-23T09:23:57;18.42;;;7.25;;
43552;SDS011;29153;42.696;23.218;2022-07-23T09:26:28;13.48;;;6.30;;
43552;SDS011;29153;42.696;23.218;2022-07-23T09:31:57;16.07;;;6.60;;
43552;SDS011;29153;42.696;23.218;2022-07-23T09:34:30;16.50;;;6.00;;
43552;SDS011;29153;42.696;23.218;2022-07-23T09:37:11;13.88;;;5.67;;
43552;SDS011;29153;42.696;23.218;2022-07-23T09:39:41;12.03;;;5.95;;
43552;SDS011;29153;42.696;23.218;2022-07-23T09:42:16;18.52;;;6.20;;
43552;SDS011;29153;42.696;23.218;2022-07-23T09:44:46;14.18;;;6.50;;
43552;SDS011;29153;42.696;23.218;2022-07-23T09:47:15;18.27;;;5.42;;
43552;SDS011;29153;42.696;23.218;2022-07-23T09:52:35;16.73;;;6.53;;
43552;SDS011;29153;42.696;23.218;2022-07-23T09:55:05;16.95;;;5.55;;
43552;SDS011;29153;42.696;23.218;2022-07-23T09:57:33;12.47;;;5.50;;
43552;SDS011;29153;42.696;23.218;2022-07-23T10:00:02;20.70;;;5.50;;
43552;SDS011;29153;42.696;23.218;2022-07-23T10:02:32;16.55;;;5.12;;
43552;SDS011;29153;42.696;23.218;2022-07-23T10:05:00;13.98;;;4.70;;
43552;SDS011;29153;42.696;23.218;2022-07-23T10:07:33;14.28;;;5.58;;
43552;SDS011;29153;42.696;23.218;2022-07-23T10:10:04;15.50;;;5.28;;
43552;SDS011;29153;42.696;23.218;2022-07-23T10:12:32;14.78;;;5.30;;
43552;SDS011;29153;42.696;23.218;2022-07-23T10:15:01;15.72;;;5.65;;
43552;SDS011;29153;42.696;23.218;2022-07-23T10:17:32;20.77;;;5.58;;
43552;SDS011;29153;42.696;23.218;2022-07-23T10:20:00;11.90;;;5.08;;
43552;SDS011;29153;42.696;23.218;2022-07-23T10:22:35;13.58;;;5.10;;
43552;SDS011;29153;42.696;23.218;2022-07-23T10:38:29;9.83;;;4.83;;
43552;SDS011;29153;42.696;23.218;2022-07-23T10:41:00;14.95;;;5.03;;
43552;SDS011;29153;42.696;23.218;2022-07-23T10:43:29;14.15;;;4.50;;
43552;SDS011;29153;42.696;23.218;2022-07-23T10:46:43;17.20;;;4.75;;
43552;SDS011;29153;42.696;23.218;2022-07-23T10:48:44;11.80;;;4.67;;
43552;SDS011;29153;42.696;23.218;2022-07-23T10:51:12;18.17;;;4.40;;
43552;SDS011;29153;42.696;23.218;2022-07-23T10:59:23;15.25;;;4.25;;
43552;SDS011;29153;42.696;23.218;2022-07-23T11:01:51;15.90;;;4.55;;
43552;SDS011;29153;42.696;23.218;2022-07-23T11:04:18;11.33;;;4.80;;
43552;SDS011;29153;42.696;23.218;2022-07-23T11:09:27;16.07;;;4.70;;
43552;SDS011;29153;42.696;23.218;2022-07-23T11:17:28;14.58;;;4.60;;
43552;SDS011;29153;42.696;23.218;2022-07-23T11:25:28;17.15;;;5.00;;
43552;SDS011;29153;42.696;23.218;2022-07-23T11:27:51;18.73;;;4.25;;
43552;SDS011;29153;42.696;23.218;2022-07-23T11:35:38;16.17;;;4.75;;
43552;SDS011;29153;42.696;23.218;2022-07-23T11:38:11;15.18;;;4.95;;
43552;SDS011;29153;42.696;23.218;2022-07-23T11:40:41;13.32;;;4.47;;
43552;SDS011;29153;42.696;23.218;2022-07-23T11:43:12;18.77;;;4.42;;
43552;SDS011;29153;42.696;23.218;2022-07-23T11:45:42;11.55;;;4.37;;
43552;SDS011;29153;42.696;23.218;2022-07-23T11:48:18;18.60;;;4.35;;
43552;SDS011;29153;42.696;23.218;2022-07-23T11:50:48;28.27;;;4.87;;
43552;SDS011;29153;42.696;23.218;2022-07-23T11:53:29;13.98;;;3.87;;
43552;SDS011;29153;42.696;23.218;2022-07-23T11:55:54;18.05;;;5.50;;
43552;SDS011;29153;42.696;23.218;2022-07-23T11:58:23;20.75;;;4.87;;
43552;SDS011;29153;42.696;23.218;2022-07-23T12:00:50;16.90;;;4.85;;
43552;SDS011;29153;42.696;23.218;2022-07-23T12:03:19;15.30;;;4.40;;
43552;SDS011;29153;42.696;23.218;2022-07-23T12:05:47;18.48;;;4.85;;
43552;SDS011;29153;42.696;23.218;2022-07-23T12:08:15;25.05;;;4.87;;
43552;SDS011;29153;42.696;23.218;2022-07-23T12:10:43;14.10;;;4.58;;
43552;SDS011;29153;42.696;23.218;2022-07-23T12:13:13;13.95;;;4.50;;
43552;SDS011;29153;42.696;23.218;2022-07-23T12:18:13;20.50;;;5.15;;
43552;SDS011;29153;42.696;23.218;2022-07-23T12:20:43;21.37;;;5.05;;
43552;SDS011;29153;42.696;23.218;2022-07-23T12:23:13;21.87;;;5.20;;
43552;SDS011;29153;42.696;23.218;2022-07-23T12:25:43;21.05;;;4.65;;
43552;SDS011;29153;42.696;23.218;2022-07-23T12:28:13;20.08;;;4.55;;
43552;SDS011;29153;42.696;23.218;2022-07-23T12:30:52;14.18;;;4.28;;
43552;SDS011;29153;42.696;23.218;2022-07-23T12:33:23;22.07;;;4.72;;
43552;SDS011;29153;42.696;23.218;2022-07-23T12:35:56;19.57;;;5.17;;
43552;SDS011;29153;42.696;23.218;2022-07-23T12:38:25;19.57;;;4.20;;
43552;SDS011;29153;42.696;23.218;2022-07-23T12:40:55;20.45;;;5.33;;
43552;SDS011;29153;42.696;23.218;2022-07-23T12:48:33;18.02;;;4.95;;
43552;SDS011;29153;42.696;23.218;2022-07-23T12:51:08;17.90;;;4.97;;
43552;SDS011;29153;42.696;23.218;2022-07-23T12:53:45;18.80;;;5.05;;
43552;SDS011;29153;42.696;23.218;2022-07-23T12:56:15;19.30;;;4.80;;
43552;SDS011;29153;42.696;23.218;2022-07-23T12:58:46;18.05;;;4.95;;
43552;SDS011;29153;42.696;23.218;2022-07-23T13:01:23;18.98;;;5.25;;
43552;SDS011;29153;42.696;23.218;2022-07-23T13:03:56;11.00;;;4.47;;
43552;SDS011;29153;42.696;23.218;2022-07-23T13:06:29;21.07;;;5.15;;
43552;SDS011;29153;42.696;23.218;2022-07-23T13:09:02;13.65;;;4.58;;
43552;SDS011;29153;42.696;23.218;2022-07-23T13:11:31;13.85;;;4.17;;
43552;SDS011;29153;42.696;23.218;2022-07-23T13:13:59;10.20;;;4.30;;
43552;SDS011;29153;42.696;23.218;2022-07-23T13:16:28;15.30;;;4.42;;
43552;SDS011;29153;42.696;23.218;2022-07-23T13:18:58;14.93;;;4.33;;
43552;SDS011;29153;42.696;23.218;2022-07-23T13:21:27;19.05;;;4.53;;
43552;SDS011;29153;42.696;23.218;2022-07-23T13:23:56;10.40;;;4.15;;
43552;SDS011;29153;42.696;23.218;2022-07-23T13:26:24;14.38;;;3.70;;
43552;SDS011;29153;42.696;23.218;2022-07-23T13:28:53;9.73;;;3.55;;
43552;SDS011;29153;42.696;23.218;2022-07-23T13:31:21;15.45;;;3.87;;
43552;SDS011;29153;42.696;23.218;2022-07-23T13:33:48;12.85;;;4.58;;
43552;SDS011;29153;42.696;23.218;2022-07-23T13:36:16;24.80;;;4.87;;
43552;SDS011;29153;42.696;23.218;2022-07-23T13:38:43;12.15;;;3.85;;
43552;SDS011;29153;42.696;23.218;2022-07-23T13:41:11;11.57;;;4.15;;
43552;SDS011;29153;42.696;23.218;2022-07-23T13:43:40;19.67;;;4.30;;
43552;SDS011;29153;42.696;23.218;2022-07-23T13:46:08;9.13;;;4.00;;
43552;SDS011;29153;42.696;23.218;2022-07-23T13:48:36;11.78;;;4.50;;
43552;SDS011;29153;42.696;23.218;2022-07-23T13:51:03;16.80;;;4.28;;
43552;SDS011;29153;42.696;23.218;2022-07-23T13:53:32;16.42;;;4.67;;
43552;SDS011;29153;42.696;23.218;2022-07-23T13:56:00;16.70;;;4.10;;
43552;SDS011;29153;42.696;23.218;2022-07-23T13:58:28;9.80;;;4.37;;
43552;SDS011;29153;42.696;23.218;2022-07-23T14:00:55;18.77;;;4.12;;
43552;SDS011;29153;42.696;23.218;2022-07-23T14:03:23;11.22;;;4.17;;
43552;SDS011;29153;42.696;23.218;2022-07-23T14:05:52;15.85;;;4.45;;
43552;SDS011;29153;42.696;23.218;2022-07-23T14:08:20;11.48;;;4.15;;
43552;SDS011;29153;42.696;23.218;2022-07-23T14:10:47;14.58;;;4.15;;
43552;SDS011;29153;42.696;23.218;2022-07-23T14:13:15;13.30;;;3.92;;
43552;SDS011;29153;42.696;23.218;2022-07-23T14:15:43;18.73;;;5.00;;
43552;SDS011;29153;42.696;23.218;2022-07-23T14:18:10;12.47;;;4.17;;
43552;SDS011;29153;42.696;23.218;2022-07-23T14:20:38;12.95;;;4.67;;
43552;SDS011;29153;42.696;23.218;2022-07-23T14:23:05;63.80;;;6.60;;
43552;SDS011;29153;42.696;23.218;2022-07-23T14:25:33;13.20;;;4.35;;
43552;SDS011;29153;42.696;23.218;2022-07-23T14:28:01;11.83;;;4.45;;
43552;SDS011;29153;42.696;23.218;2022-07-23T14:30:29;12.58;;;3.60;;
43552;SDS011;29153;42.696;23.218;2022-07-23T14:32:56;31.45;;;4.78;;
43552;SDS011;29153;42.696;23.218;2022-07-23T14:35:24;11.22;;;3.90;;
43552;SDS011;29153;42.696;23.218;2022-07-23T14:37:51;14.07;;;4.10;;
43552;SDS011;29153;42.696;23.218;2022-07-23T14:40:19;14.13;;;4.47;;
43552;SDS011;29153;42.696;23.218;2022-07-23T14:42:47;27.55;;;5.12;;
43552;SDS011;29153;42.696;23.218;2022-07-23T14:45:14;17.92;;;4.50;;
43552;SDS011;29153;42.696;23.218;2022-07-23T14:47:42;14.23;;;3.92;;
43552;SDS011;29153;42.696;23.218;2022-07-23T14:50:09;10.10;;;4.00;;
43552;SDS011;29153;42.696;23.218;2022-07-23T14:52:39;22.00;;;4.72;;
43552;SDS011;29153;42.696;23.218;2022-07-23T14:55:06;10.00;;;4.00;;
43552;SDS011;29153;42.696;23.218;2022-07-23T14:57:34;20.92;;;4.35;;
43552;SDS011;29153;42.696;23.218;2022-07-23T15:00:03;12.63;;;4.20;;
43552;SDS011;29153;42.696;23.218;2022-07-23T15:02:31;15.20;;;5.00;;
43552;SDS011;29153;42.696;23.218;2022-07-23T15:04:59;16.75;;;4.80;;
43552;SDS011;29153;42.696;23.218;2022-07-23T15:07:28;25.52;;;5.08;;
43552;SDS011;29153;42.696;23.218;2022-07-23T15:09:56;9.30;;;4.08;;
43552;SDS011;29153;42.696;23.218;2022-07-23T15:12:24;15.45;;;4.55;;
43552;SDS011;29153;42.696;23.218;2022-07-23T15:14:52;18.37;;;5.20;;
43552;SDS011;29153;42.696;23.218;2022-07-23T15:17:19;19.12;;;4.83;;
43552;SDS011;29153;42.696;23.218;2022-07-23T15:19:47;12.43;;;4.03;;
43552;SDS011;29153;42.696;23.218;2022-07-23T15:22:15;13.32;;;4.58;;
43552;SDS011;29153;42.696;23.218;2022-07-23T15:24:43;13.48;;;4.53;;
43552;SDS011;29153;42.696;23.218;2022-07-23T15:27:10;12.90;;;4.92;;